Time;durP1;ratioP1;P1;durP2;ratioP2;P2;SDS_P1;SDS_P2;PMS_P1;PMS_P2;Temp;Humidity;BMP_temperature;BMP_pressure;BME280_temperature;BME280_humidity;BME280_pressure;Samples;Min_cycle;Max_cycle;Signal;HPM_P1;HPM_P2
2022/06/11 00:02:04;;;;;;;1.30;1.00;;;21.30;61.00;;;;;;5033945;28;43545;-61
2022/06/11 00:04:41;;;;;;;1.05;1.05;;;21.30;61.00;;;;;;5042047;28;43450;-63
2022/06/11 00:07:12;;;;;;;1.10;1.10;;;21.30;61.00;;;;;;5031609;28;43423;-61
2022/06/11 00:09:41;;;;;;;1.25;1.10;;;21.30;61.00;;;;;;5033532;28;44333;-61
2022/06/11 00:12:10;;;;;;;1.20;1.10;;;21.30;61.00;;;;;;5034784;28;43993;-61
2022/06/11 00:14:39;;;;;;;1.27;1.10;;;21.30;61.00;;;;;;5043468;28;43406;-61
2022/06/11 00:17:09;;;;;;;1.23;1.05;;;21.30;61.00;;;;;;5032257;28;43967;-61
2022/06/11 00:19:36;;;;;;;1.80;1.30;;;21.30;61.00;;;;;;5033364;28;44141;-61
2022/06/11 00:22:04;;;;;;;1.30;1.20;;;21.30;61.00;;;;;;5037259;28;43462;-62
2022/06/11 00:24:32;;;;;;;1.35;1.25;;;21.30;61.00;;;;;;5039782;28;43364;-61
2022/06/11 00:27:01;;;;;;;1.15;1.02;;;21.30;61.00;;;;;;5033205;28;43515;-61
2022/06/11 00:29:32;;;;;;;1.20;1.10;;;21.30;61.00;;;;;;5034279;28;43795;-61
2022/06/11 00:32:00;;;;;;;1.20;1.20;;;21.30;61.00;;;;;;5038638;28;44158;-61
2022/06/11 00:34:28;;;;;;;2.13;1.38;;;21.30;61.00;;;;;;5043870;28;43980;-61
2022/06/11 00:36:56;;;;;;;1.20;1.10;;;21.30;61.00;;;;;;5033363;28;43450;-62
2022/06/11 00:39:28;;;;;;;1.27;1.17;;;21.30;61.00;;;;;;5033653;28;43780;-61
2022/06/11 00:42:01;;;;;;;1.88;1.10;;;21.30;61.00;;;;;;5040551;28;43492;-61
2022/06/11 00:44:28;;;;;;;1.80;1.42;;;21.30;61.10;;;;;;5041385;28;43432;-61
2022/06/11 00:47:12;;;;;;;1.40;1.00;;;21.30;61.10;;;;;;5033984;28;43538;-61
2022/06/11 00:49:45;;;;;;;1.17;1.08;;;21.30;61.10;;;;;;5036281;28;44990;-61
2022/06/11 00:52:22;;;;;;;1.27;1.17;;;21.30;61.10;;;;;;5043002;28;43494;-61
2022/06/11 00:55:25;;;;;;;1.58;1.20;;;21.30;61.10;;;;;;5032691;28;43458;-61
2022/06/11 00:57:57;;;;;;;0.95;0.95;;;21.30;61.10;;;;;;5027845;28;43514;-61
2022/06/11 01:00:38;;;;;;;1.20;1.10;;;21.20;61.00;;;;;;5043749;28;44147;-61
2022/06/11 01:03:11;;;;;;;0.98;0.98;;;21.20;61.00;;;;;;5029779;28;43430;-61
2022/06/11 01:05:43;;;;;;;0.93;0.93;;;21.20;61.00;;;;;;5034640;28;43456;-61
2022/06/11 01:08:18;;;;;;;1.58;1.30;;;21.20;61.10;;;;;;5042800;28;43536;-62
2022/06/11 01:11:14;;;;;;;1.02;0.98;;;21.20;61.00;;;;;;5043712;28;45036;-62
2022/06/11 01:14:07;;;;;;;1.70;1.20;;;21.20;61.10;;;;;;5038872;28;43502;-61
2022/06/11 01:17:06;;;;;;;1.25;0.90;;;21.20;61.10;;;;;;5037866;28;44053;-61
2022/06/11 01:19:58;;;;;;;1.10;1.00;;;21.20;61.10;;;;;;5036931;28;43555;-61
2022/06/11 01:22:52;;;;;;;0.85;0.85;;;21.20;61.10;;;;;;5034550;28;44129;-61
2022/06/11 01:25:36;;;;;;;1.20;1.10;;;21.20;61.10;;;;;;5037528;28;43450;-61
2022/06/11 01:28:34;;;;;;;1.73;1.30;;;21.20;61.20;;;;;;5044021;28;43419;-61
2022/06/11 01:31:01;;;;;;;1.20;1.10;;;21.20;61.10;;;;;;5035058;28;43478;-61
2022/06/11 01:33:57;;;;;;;1.30;1.13;;;21.10;61.10;;;;;;5038559;28;44138;-62
2022/06/11 01:36:29;;;;;;;1.30;1.20;;;21.20;61.10;;;;;;5039304;28;43394;-61
2022/06/11 01:39:03;;;;;;;1.27;1.10;;;21.10;61.10;;;;;;5039258;28;43460;-61
2022/06/11 01:41:33;;;;;;;2.30;1.20;;;21.10;61.10;;;;;;5032624;28;43551;-62
2022/06/11 01:44:05;;;;;;;1.27;1.10;;;21.10;61.10;;;;;;5039235;28;44618;-61
2022/06/11 01:46:36;;;;;;;1.42;1.00;;;21.10;61.10;;;;;;5042457;28;44084;-61
2022/06/11 01:49:22;;;;;;;1.25;1.10;;;21.10;61.10;;;;;;5036677;28;43759;-61
2022/06/11 01:51:59;;;;;;;1.40;1.27;;;21.10;61.10;;;;;;5034438;28;43626;-61
2022/06/11 01:55:07;;;;;;;1.88;1.30;;;21.10;61.10;;;;;;5039053;28;43806;-61
2022/06/11 01:57:41;;;;;;;1.40;1.30;;;21.10;61.10;;;;;;5036672;28;43689;-61
2022/06/11 02:00:18;;;;;;;1.23;1.13;;;21.10;61.10;;;;;;5067402;28;43486;-62
2022/06/11 02:03:33;;;;;;;1.40;1.20;;;21.10;61.10;;;;;;5037345;28;43423;-62
2022/06/11 02:06:16;;;;;;;1.40;1.05;;;21.10;61.10;;;;;;5038465;28;44748;-61
2022/06/11 02:08:59;;;;;;;1.00;1.00;;;21.10;61.10;;;;;;5028251;28;43980;-61
2022/06/11 02:11:38;;;;;;;1.58;1.38;;;21.10;61.10;;;;;;5035121;28;43510;-61
2022/06/11 02:14:36;;;;;;;1.52;1.20;;;21.10;61.10;;;;;;5041896;28;43477;-61
2022/06/11 02:17:22;;;;;;;1.42;1.05;;;21.00;61.00;;;;;;5044590;28;44759;-62
2022/06/11 02:19:54;;;;;;;1.13;1.02;;;21.00;61.10;;;;;;5032042;28;43427;-61
2022/06/11 02:22:29;;;;;;;1.90;1.10;;;21.00;61.00;;;;;;5039753;28;43515;-62
2022/06/11 02:25:21;;;;;;;2.35;1.08;;;21.00;61.00;;;;;;5043479;28;43416;-61
2022/06/11 02:27:52;;;;;;;1.45;1.35;;;21.00;61.00;;;;;;5029291;28;44682;-60
2022/06/11 02:30:22;;;;;;;1.95;1.00;;;21.00;61.00;;;;;;5036206;28;43863;-61
2022/06/11 02:32:51;;;;;;;1.23;1.05;;;21.00;61.00;;;;;;5036412;28;43458;-62
2022/06/11 02:35:46;;;;;;;1.30;1.20;;;21.00;61.00;;;;;;5031379;28;43513;-61
2022/06/11 02:38:17;;;;;;;1.58;1.30;;;21.00;61.00;;;;;;5035146;28;44689;-61
2022/06/11 02:40:58;;;;;;;1.30;1.20;;;21.00;61.00;;;;;;5039622;28;43474;-61
2022/06/11 02:43:26;;;;;;;1.05;1.02;;;20.90;60.90;;;;;;5039583;28;43503;-62
2022/06/11 02:45:55;;;;;;;1.85;1.30;;;20.90;61.00;;;;;;5036452;28;43526;-61
2022/06/11 02:48:24;;;;;;;1.60;1.27;;;21.00;61.00;;;;;;5035749;28;45133;-61
2022/06/11 02:50:53;;;;;;;1.08;1.00;;;20.90;61.00;;;;;;5040615;28;43748;-61
2022/06/11 02:53:20;;;;;;;1.40;1.30;;;20.90;61.00;;;;;;5026744;28;43398;-61
2022/06/11 02:55:48;;;;;;;2.15;1.20;;;20.90;61.00;;;;;;5029692;28;43470;-61
2022/06/11 02:58:15;;;;;;;1.42;1.33;;;20.90;61.00;;;;;;5031511;28;43786;-61
2022/06/11 03:00:47;;;;;;;1.25;1.15;;;20.90;61.00;;;;;;5038229;28;43448;-61
2022/06/11 03:03:15;;;;;;;1.30;1.20;;;20.90;61.00;;;;;;4988083;28;1272768;-62
2022/06/11 03:05:44;;;;;;;1.23;1.10;;;20.90;61.10;;;;;;5037494;28;43529;-61
2022/06/11 03:08:11;;;;;;;1.08;0.98;;;20.90;61.10;;;;;;5039749;28;43699;-61
2022/06/11 03:10:39;;;;;;;1.17;1.08;;;20.90;61.10;;;;;;5041707;28;43721;-62
2022/06/11 03:13:07;;;;;;;1.30;1.20;;;20.90;61.10;;;;;;5028213;28;43408;-61
2022/06/11 03:15:35;;;;;;;1.92;1.17;;;20.90;61.10;;;;;;5031847;28;43625;-61
2022/06/11 03:18:03;;;;;;;1.20;1.10;;;20.90;61.10;;;;;;5039520;28;44861;-61
2022/06/11 03:20:32;;;;;;;1.45;1.10;;;20.90;61.10;;;;;;5041247;28;43665;-62
2022/06/11 03:22:59;;;;;;;1.30;1.20;;;20.80;61.00;;;;;;5029063;28;43544;-62
2022/06/11 03:25:27;;;;;;;1.45;1.20;;;20.80;61.00;;;;;;5035340;28;43657;-61
2022/06/11 03:27:56;;;;;;;2.58;1.50;;;20.80;61.00;;;;;;5044306;28;43803;-62
2022/06/11 03:30:25;;;;;;;2.75;1.30;;;20.80;61.00;;;;;;5042750;28;43651;-62
2022/06/11 03:32:52;;;;;;;1.65;1.20;;;20.80;61.00;;;;;;5038686;28;43436;-62
2022/06/11 03:35:20;;;;;;;1.70;1.23;;;20.80;61.10;;;;;;5031733;28;43523;-61
2022/06/11 03:37:48;;;;;;;1.92;1.25;;;20.80;61.00;;;;;;5038748;28;43811;-62
2022/06/11 03:40:15;;;;;;;1.55;1.10;;;20.80;61.00;;;;;;5040018;28;44018;-61
2022/06/11 03:42:43;;;;;;;2.38;1.30;;;20.80;61.00;;;;;;5027935;28;43460;-61
2022/06/11 03:45:11;;;;;;;1.80;1.52;;;20.80;61.10;;;;;;5033325;28;43472;-62
2022/06/11 03:47:40;;;;;;;2.17;1.30;;;20.80;61.10;;;;;;5039512;28;43804;-62
2022/06/11 03:50:16;;;;;;;1.48;1.05;;;20.80;61.10;;;;;;5038694;28;43644;-62
2022/06/11 03:52:43;;;;;;;1.00;0.95;;;20.80;61.10;;;;;;5033427;28;43441;-61
2022/06/11 03:55:11;;;;;;;1.60;1.38;;;20.80;61.10;;;;;;5041183;28;43613;-61
2022/06/11 03:57:39;;;;;;;2.13;1.40;;;20.70;61.10;;;;;;5043352;28;43780;-61
2022/06/11 04:00:11;;;;;;;1.77;1.23;;;20.80;61.10;;;;;;5033056;28;43414;-61
2022/06/11 04:02:38;;;;;;;3.28;1.75;;;20.70;61.10;;;;;;5035330;28;44179;-61
2022/06/11 04:05:07;;;;;;;1.45;0.98;;;20.70;61.10;;;;;;5042178;28;43438;-61
2022/06/11 04:07:36;;;;;;;3.97;1.35;;;20.70;61.10;;;;;;5030751;28;43821;-61
2022/06/11 04:10:04;;;;;;;1.58;1.30;;;20.70;61.10;;;;;;5030266;28;43484;-62
2022/06/11 04:12:33;;;;;;;1.75;1.13;;;20.70;61.10;;;;;;5037491;28;43435;-61
2022/06/11 04:15:00;;;;;;;1.98;1.10;;;20.70;61.10;;;;;;5042528;28;43423;-62
2022/06/11 04:17:32;;;;;;;1.63;1.20;;;20.70;61.10;;;;;;5030912;28;43803;-61
2022/06/11 04:20:00;;;;;;;1.55;1.30;;;20.70;61.10;;;;;;5030432;28;43525;-62
2022/06/11 04:22:28;;;;;;;1.73;1.30;;;20.70;61.10;;;;;;5039515;28;43490;-61
2022/06/11 04:24:55;;;;;;;1.77;1.23;;;20.70;61.10;;;;;;5043112;28;43454;-62
2022/06/11 04:27:24;;;;;;;1.92;1.35;;;20.70;61.10;;;;;;5030391;28;43803;-61
2022/06/11 04:29:55;;;;;;;1.40;1.30;;;20.70;61.10;;;;;;5030786;28;43718;-61
2022/06/11 04:32:26;;;;;;;2.15;1.10;;;20.70;61.10;;;;;;5037385;28;43544;-62
2022/06/11 04:34:54;;;;;;;1.35;1.25;;;20.70;61.10;;;;;;5043738;28;43469;-61
2022/06/11 04:37:24;;;;;;;1.67;1.20;;;20.60;61.10;;;;;;5030255;28;43744;-62
2022/06/11 04:39:54;;;;;;;2.65;1.50;;;20.70;61.10;;;;;;5033323;28;43550;-62
2022/06/11 04:42:23;;;;;;;2.75;1.63;;;20.60;61.10;;;;;;5039923;28;43531;-61
2022/06/11 04:44:51;;;;;;;1.75;1.45;;;20.60;61.10;;;;;;5040702;28;43474;-61
2022/06/11 04:47:22;;;;;;;2.47;1.55;;;20.60;61.10;;;;;;5029532;28;44697;-61
2022/06/11 04:49:52;;;;;;;1.58;1.20;;;20.60;61.10;;;;;;5068392;28;44331;-61
2022/06/11 04:52:20;;;;;;;1.73;1.08;;;20.60;61.10;;;;;;5042647;28;43494;-62
2022/06/11 04:54:47;;;;;;;1.55;1.13;;;20.60;61.10;;;;;;5041821;28;43440;-61
2022/06/11 04:57:15;;;;;;;1.60;1.30;;;20.60;61.10;;;;;;5030676;28;43796;-61
2022/06/11 04:59:43;;;;;;;1.60;1.20;;;20.60;61.10;;;;;;5041602;28;43490;-62
2022/06/11 05:02:10;;;;;;;3.05;1.58;;;20.60;61.10;;;;;;5030416;28;43600;-61
2022/06/11 05:04:38;;;;;;;2.13;1.38;;;20.60;61.10;;;;;;5032070;28;44072;-61
2022/06/11 05:07:06;;;;;;;1.83;1.42;;;20.60;61.10;;;;;;5031611;28;43809;-61
2022/06/11 05:09:33;;;;;;;2.10;1.20;;;20.60;61.10;;;;;;5040629;28;43504;-61
2022/06/11 05:12:02;;;;;;;1.75;1.40;;;20.60;61.30;;;;;;5030326;28;43415;-62
2022/06/11 05:14:30;;;;;;;1.48;1.20;;;20.60;61.10;;;;;;5030296;28;43563;-61
2022/06/11 05:16:59;;;;;;;2.05;1.38;;;20.60;61.10;;;;;;5029457;28;44042;-61
2022/06/11 05:19:27;;;;;;;2.63;1.80;;;20.60;61.10;;;;;;5036804;28;43985;-61
2022/06/11 05:21:56;;;;;;;1.38;1.27;;;20.60;61.00;;;;;;5041759;28;43403;-61
2022/06/11 05:24:24;;;;;;;1.63;1.30;;;20.60;61.00;;;;;;5027016;28;44061;-62
2022/06/11 05:26:58;;;;;;;2.53;1.35;;;20.60;61.00;;;;;;5023751;28;44635;-61
2022/06/11 05:29:57;;;;;;;2.90;1.80;;;20.60;61.00;;;;;;5030868;28;43957;-61
2022/06/11 05:32:29;;;;;;;2.17;1.50;;;20.60;61.00;;;;;;5035765;28;43464;-61
2022/06/11 05:34:58;;;;;;;1.58;1.20;;;20.60;61.10;;;;;;5027994;28;43522;-62
2022/06/11 05:37:27;;;;;;;1.95;1.23;;;20.60;61.10;;;;;;5036818;28;44728;-61
2022/06/11 05:39:55;;;;;;;1.77;1.42;;;20.60;61.10;;;;;;5040224;28;43509;-62
2022/06/11 05:42:24;;;;;;;2.08;1.55;;;20.60;61.10;;;;;;5026956;28;43964;-62
2022/06/11 05:44:53;;;;;;;2.63;1.52;;;20.60;61.30;;;;;;5031563;28;43552;-61
2022/06/11 05:47:23;;;;;;;2.10;1.40;;;20.60;61.40;;;;;;5041230;28;43801;-62
2022/06/11 05:49:55;;;;;;;2.35;1.52;;;20.60;61.40;;;;;;5042483;28;43911;-61
2022/06/11 05:52:27;;;;;;;3.22;1.48;;;20.60;61.20;;;;;;5065861;28;43481;-61
2022/06/11 05:54:55;;;;;;;2.13;1.40;;;20.60;61.20;;;;;;5042712;28;43423;-62
2022/06/11 05:57:26;;;;;;;2.25;1.30;;;20.60;61.10;;;;;;5045398;28;44708;-61
2022/06/11 05:59:59;;;;;;;2.60;1.38;;;20.60;61.10;;;;;;5035151;28;43544;-62
2022/06/11 06:02:28;;;;;;;2.90;1.50;;;20.60;61.10;;;;;;5034854;28;43503;-61
2022/06/11 06:04:56;;;;;;;1.50;1.40;;;20.60;61.10;;;;;;5043658;28;43479;-61
2022/06/11 06:07:23;;;;;;;2.60;1.52;;;20.60;61.10;;;;;;5032587;28;44979;-61
2022/06/11 06:09:51;;;;;;;3.17;1.60;;;20.60;61.10;;;;;;5032459;28;43699;-62
2022/06/11 06:12:18;;;;;;;2.60;1.60;;;20.60;61.10;;;;;;5037154;28;43455;-61
2022/06/11 06:14:46;;;;;;;2.42;1.55;;;20.60;61.10;;;;;;5044544;28;43480;-62
2022/06/11 06:17:13;;;;;;;3.08;1.65;;;20.60;61.10;;;;;;5030479;28;43799;-61
2022/06/11 06:20:01;;;;;;;3.20;1.90;;;20.60;61.10;;;;;;5026884;28;44245;-61
2022/06/11 06:22:28;;;;;;;3.20;1.50;;;20.60;61.20;;;;;;5033232;28;43471;-61
2022/06/11 06:24:56;;;;;;;4.32;2.10;;;20.60;61.30;;;;;;5040394;28;43502;-64
2022/06/11 06:27:23;;;;;;;3.60;1.75;;;20.60;61.50;;;;;;5041470;28;44705;-61
2022/06/11 06:29:51;;;;;;;4.07;2.00;;;20.60;61.30;;;;;;5028648;28;43499;-61
2022/06/11 06:32:19;;;;;;;3.83;1.95;;;20.60;61.50;;;;;;5034173;28;43489;-63
2022/06/11 06:34:46;;;;;;;3.05;1.90;;;20.60;61.50;;;;;;5038511;28;43512;-62
2022/06/11 06:37:14;;;;;;;3.85;1.80;;;20.60;61.50;;;;;;5041872;28;44027;-62
2022/06/11 06:39:42;;;;;;;3.65;1.88;;;20.60;61.50;;;;;;5042451;28;43681;-62
2022/06/11 06:42:09;;;;;;;4.25;1.90;;;20.60;61.50;;;;;;5043243;28;43490;-61
2022/06/11 06:44:37;;;;;;;4.20;1.83;;;20.60;61.50;;;;;;5042704;28;43439;-62
2022/06/11 06:47:05;;;;;;;3.80;1.83;;;20.60;61.50;;;;;;5042603;28;44967;-61
2022/06/11 06:49:33;;;;;;;4.35;2.10;;;20.60;61.60;;;;;;5041706;28;44299;-62
2022/06/11 06:52:00;;;;;;;2.95;1.73;;;20.60;61.70;;;;;;5040958;28;43484;-61
2022/06/11 06:54:28;;;;;;;3.88;2.00;;;20.60;61.60;;;;;;5040508;28;43471;-62
2022/06/11 06:56:55;;;;;;;4.20;1.90;;;20.60;61.70;;;;;;5038972;28;44060;-61
2022/06/11 06:59:23;;;;;;;4.88;2.05;;;20.60;61.60;;;;;;5042625;28;43668;-61
2022/06/11 07:01:51;;;;;;;4.93;2.22;;;20.60;61.60;;;;;;5042450;28;43583;-62
2022/06/11 07:04:19;;;;;;;5.13;2.13;;;20.70;61.70;;;;;;5040749;28;43558;-62
2022/06/11 07:06:52;;;;;;;4.38;2.13;;;20.70;61.50;;;;;;5039087;28;44837;-61
2022/06/11 07:09:19;;;;;;;2.65;1.88;;;20.70;61.60;;;;;;5043298;28;43977;-61
2022/06/11 07:11:47;;;;;;;3.78;2.28;;;20.70;61.60;;;;;;5042076;28;43802;-61
2022/06/11 07:14:14;;;;;;;4.00;1.95;;;20.70;61.50;;;;;;5039222;28;43413;-62
2022/06/11 07:16:47;;;;;;;3.15;1.95;;;20.60;61.50;;;;;;5040867;28;43799;-61
2022/06/11 07:19:24;;;;;;;6.10;2.33;;;20.60;62.40;;;;;;5042592;28;43502;-61
2022/06/11 07:21:57;;;;;;;4.57;1.98;;;20.60;61.80;;;;;;5042475;28;43407;-62
2022/06/11 07:24:27;;;;;;;4.10;2.10;;;20.60;61.70;;;;;;5041563;28;43609;-61
2022/06/11 07:27:02;;;;;;;5.15;2.15;;;20.60;61.80;;;;;;5041292;28;44996;-61
2022/06/11 07:29:34;;;;;;;4.22;2.10;;;20.60;61.70;;;;;;5039657;28;43970;-61
2022/06/11 07:32:10;;;;;;;3.63;1.90;;;20.60;61.70;;;;;;5039475;28;43504;-61
2022/06/11 07:34:37;;;;;;;3.63;2.00;;;20.60;61.70;;;;;;5038220;28;43515;-62
2022/06/11 07:37:05;;;;;;;4.68;2.33;;;20.60;61.70;;;;;;5039476;28;44696;-61
2022/06/11 07:39:34;;;;;;;4.30;2.05;;;20.60;61.70;;;;;;5042612;28;43515;-62
2022/06/11 07:42:02;;;;;;;5.25;2.67;;;20.60;61.70;;;;;;5041697;28;43426;-61
2022/06/11 07:44:31;;;;;;;4.53;2.30;;;20.60;61.70;;;;;;5041958;28;43463;-61
2022/06/11 07:46:58;;;;;;;6.15;2.00;;;20.60;61.70;;;;;;5038348;28;43805;-61
2022/06/11 07:49:26;;;;;;;4.57;2.20;;;20.60;61.70;;;;;;5041071;28;43787;-61
2022/06/11 07:51:54;;;;;;;3.90;2.00;;;20.60;61.70;;;;;;5039919;28;43999;-62
2022/06/11 07:54:21;;;;;;;4.68;2.33;;;20.60;61.60;;;;;;5039820;28;43503;-61
2022/06/11 07:56:51;;;;;;;3.85;2.20;;;20.60;61.60;;;;;;5042105;28;43808;-61
2022/06/11 07:59:19;;;;;;;4.60;2.35;;;20.60;61.60;;;;;;5039320;28;44024;-61
2022/06/11 08:01:46;;;;;;;5.63;2.67;;;20.60;61.60;;;;;;5033736;28;43519;-62
2022/06/11 08:04:14;;;;;;;4.78;2.30;;;20.60;61.70;;;;;;5038613;28;43506;-62
2022/06/11 08:06:41;;;;;;;5.88;2.72;;;20.70;61.90;;;;;;5033972;28;45077;-62
2022/06/11 08:09:09;;;;;;;4.32;2.25;;;20.70;61.90;;;;;;5030954;28;43713;-61
2022/06/11 08:11:36;;;;;;;5.50;2.30;;;20.70;61.80;;;;;;5035073;28;43454;-61
2022/06/11 08:14:04;;;;;;;4.88;2.25;;;20.70;61.80;;;;;;5039900;28;43435;-61
2022/06/11 08:16:31;;;;;;;5.22;2.45;;;20.70;61.70;;;;;;5033981;28;43815;-61
2022/06/11 08:18:59;;;;;;;5.15;2.63;;;20.70;61.80;;;;;;5032155;28;43383;-61
2022/06/11 08:21:26;;;;;;;4.20;2.00;;;20.70;61.90;;;;;;5035532;28;43458;-61
2022/06/11 08:23:54;;;;;;;4.05;2.03;;;20.70;61.80;;;;;;5041057;28;44040;-62
2022/06/11 08:26:21;;;;;;;5.32;2.10;;;20.70;61.70;;;;;;5033819;28;43810;-61
2022/06/11 08:28:49;;;;;;;5.50;2.40;;;20.70;61.70;;;;;;5032738;28;44008;-61
2022/06/11 08:31:17;;;;;;;6.25;2.25;;;20.70;61.70;;;;;;5035962;28;43514;-61
2022/06/11 08:33:44;;;;;;;5.82;2.38;;;20.70;61.80;;;;;;5074036;28;43478;-62
2022/06/11 08:36:18;;;;;;;4.07;2.00;;;20.70;61.80;;;;;;5033064;28;44991;-61
2022/06/11 08:38:45;;;;;;;4.95;2.33;;;20.70;61.70;;;;;;5030977;28;43456;-61
2022/06/11 08:41:21;;;;;;;4.70;2.20;;;20.70;61.80;;;;;;5036066;28;43530;-61
2022/06/11 08:43:57;;;;;;;5.07;2.28;;;20.80;61.80;;;;;;5040119;28;43479;-62
2022/06/11 08:46:29;;;;;;;4.22;2.13;;;20.80;61.80;;;;;;5032985;28;44201;-61
2022/06/11 08:49:27;;;;;;;4.75;2.30;;;20.80;61.80;;;;;;5041291;28;43488;-61
2022/06/11 08:52:02;;;;;;;4.60;2.35;;;20.80;61.80;;;;;;5036435;28;43455;-61
2022/06/11 08:54:35;;;;;;;5.75;2.35;;;20.80;61.80;;;;;;5041484;28;43388;-61
2022/06/11 08:57:15;;;;;;;3.92;2.13;;;20.80;61.80;;;;;;5027019;28;44655;-61
2022/06/11 09:00:07;;;;;;;4.10;2.08;;;20.80;61.80;;;;;;5037990;28;43495;-62
2022/06/11 09:02:37;;;;;;;4.68;2.00;;;20.80;61.80;;;;;;5038565;28;43502;-61
2022/06/11 09:05:19;;;;;;;5.03;2.10;;;20.80;61.80;;;;;;5024215;28;43579;-61
2022/06/11 09:08:12;;;;;;;5.43;2.20;;;20.80;61.80;;;;;;5030179;28;44505;-61
2022/06/11 09:10:54;;;;;;;4.95;2.40;;;20.80;61.70;;;;;;5035456;28;43502;-61
2022/06/11 09:14:05;;;;;;;5.28;2.20;;;20.80;61.60;;;;;;5023908;28;43576;-61
2022/06/11 09:16:48;;;;;;;5.70;2.50;;;20.90;61.80;;;;;;5029917;28;43465;-62
2022/06/11 09:19:59;;;;;;;5.43;2.40;;;20.80;61.80;;;;;;5038657;28;44972;-62
2022/06/11 09:23:09;;;;;;;6.25;2.30;;;20.90;61.70;;;;;;5042874;28;44028;-62
2022/06/11 09:26:04;;;;;;;4.03;2.38;;;20.90;61.70;;;;;;5033376;28;43434;-61
2022/06/11 09:28:44;;;;;;;4.10;2.38;;;20.90;61.70;;;;;;5036755;28;43828;-61
2022/06/11 09:31:20;;;;;;;5.00;2.20;;;20.90;61.70;;;;;;5046198;28;44682;-62
2022/06/11 09:34:15;;;;;;;5.28;2.35;;;20.90;61.60;;;;;;5035465;28;43376;-62
2022/06/11 09:36:56;;;;;;;5.28;2.38;;;20.90;61.60;;;;;;5035683;28;43415;-61
2022/06/11 09:39:47;;;;;;;5.00;2.17;;;20.90;61.60;;;;;;5044117;28;43423;-61
2022/06/11 09:42:48;;;;;;;6.22;2.60;;;20.90;61.60;;;;;;5041579;28;44987;-61
2022/06/11 09:45:31;;;;;;;4.45;1.98;;;20.90;61.80;;;;;;5036489;28;43454;-61
2022/06/11 09:48:04;;;;;;;3.85;2.03;;;21.00;61.90;;;;;;5040182;28;43456;-61
2022/06/11 09:50:49;;;;;;;6.90;2.78;;;21.00;61.90;;;;;;5038598;28;43527;-61
2022/06/11 09:53:35;;;;;;;4.60;2.10;;;21.00;61.80;;;;;;5033129;28;44069;-61
2022/06/11 09:56:15;;;;;;;4.82;2.10;;;21.00;61.80;;;;;;5035258;28;43554;-62
2022/06/11 09:58:46;;;;;;;4.88;2.15;;;21.00;61.80;;;;;;5031693;28;43504;-62
2022/06/11 10:01:16;;;;;;;;;;;21.00;61.60;;;;;;5033213;28;43568;-61
2022/06/11 10:03:52;;;;;;;4.43;2.20;;;21.00;61.60;;;;;;5035659;28;43902;-61
2022/06/11 10:06:27;;;;;;;4.70;2.25;;;21.00;61.80;;;;;;5039830;28;43980;-61
2022/06/11 10:08:58;;;;;;;3.67;1.98;;;21.10;61.80;;;;;;5045232;28;43517;-61
2022/06/11 10:11:35;;;;;;;4.80;2.53;;;21.10;61.90;;;;;;5034797;28;43539;-61
2022/06/11 10:14:28;;;;;;;3.90;1.80;;;21.10;61.80;;;;;;5034930;28;44693;-61
2022/06/11 10:17:10;;;;;;;4.93;2.00;;;21.10;61.80;;;;;;5043494;28;43500;-62
2022/06/11 10:20:02;;;;;;;4.68;2.25;;;21.10;61.80;;;;;;5029373;28;43543;-61
2022/06/11 10:22:35;;;;;;;5.18;1.90;;;21.10;61.70;;;;;;5035438;28;43422;-62
2022/06/11 10:25:14;;;;;;;3.97;2.17;;;21.10;61.70;;;;;;5041316;28;43791;-61
2022/06/11 10:28:00;;;;;;;4.43;2.38;;;21.10;61.80;;;;;;5040097;28;43477;-61
2022/06/11 10:30:56;;;;;;;6.38;2.08;;;21.10;61.70;;;;;;5031992;28;43450;-61
2022/06/11 10:33:46;;;;;;;5.47;2.60;;;21.10;61.30;;;;;;5034184;28;43472;-61
2022/06/11 10:36:52;;;;;;;4.95;2.00;;;21.10;61.80;;;;;;5035925;28;43806;-62
2022/06/11 10:39:29;;;;;;;4.07;2.10;;;21.10;61.70;;;;;;5029800;28;43460;-61
2022/06/11 10:42:18;;;;;;;5.03;2.38;;;21.20;61.80;;;;;;5036712;28;43487;-61
2022/06/11 10:44:50;;;;;;;3.63;2.20;;;21.20;61.60;;;;;;5041496;28;43430;-61
2022/06/11 10:47:27;;;;;;;5.20;1.80;;;21.20;61.60;;;;;;5027994;28;44681;-61
2022/06/11 10:50:01;;;;;;;4.60;1.92;;;21.20;61.50;;;;;;5033159;28;43731;-62
2022/06/11 10:53:05;;;;;;;4.97;2.42;;;21.20;61.60;;;;;;5042586;28;44146;-61
2022/06/11 10:55:40;;;;;;;5.45;2.30;;;21.30;61.60;;;;;;5033155;28;43562;-61
2022/06/11 10:58:26;;;;;;;5.45;2.30;;;21.30;61.60;;;;;;5039683;28;43841;-61
2022/06/11 11:00:59;;;;;;;4.47;2.22;;;21.30;61.40;;;;;;5040396;28;43678;-60
2022/06/11 11:03:55;;;;;;;5.45;2.22;;;21.40;61.50;;;;;;5036286;28;43466;-61
2022/06/11 11:06:34;;;;;;;4.53;2.28;;;21.40;61.40;;;;;;5040006;28;43487;-61
2022/06/11 11:09:12;;;;;;;4.03;1.88;;;21.50;61.50;;;;;;5039350;28;43799;-61
2022/06/11 11:11:41;;;;;;;3.47;1.70;;;21.50;61.40;;;;;;5033708;28;43720;-61
2022/06/11 11:14:41;;;;;;;3.60;1.70;;;21.60;61.50;;;;;;5043072;28;43475;-61
2022/06/11 11:17:22;;;;;;;3.80;1.90;;;21.60;61.60;;;;;;5031250;28;43470;-61
2022/06/11 11:22:42;;;;;;;3.47;1.70;;;21.60;61.50;;;;;;5039387;28;43734;-61
2022/06/11 11:25:20;;;;;;;5.22;2.30;;;21.60;61.50;;;;;;5027788;28;43579;-61
2022/06/11 11:27:50;;;;;;;4.47;2.10;;;21.60;61.40;;;;;;5033150;28;43376;-61
2022/06/11 11:30:17;;;;;;;3.80;2.10;;;21.60;61.30;;;;;;5040331;28;43794;-61
2022/06/11 11:32:47;;;;;;;5.78;1.90;;;21.70;61.40;;;;;;5038166;28;44063;-61
2022/06/11 11:35:22;;;;;;;3.58;2.25;;;21.70;61.50;;;;;;5063776;28;43583;-61
2022/06/11 11:38:02;;;;;;;3.92;2.00;;;21.70;61.40;;;;;;5039022;28;43554;-61
2022/06/11 11:40:36;;;;;;;5.57;2.10;;;21.70;61.30;;;;;;5035968;28;44726;-61
2022/06/11 11:43:09;;;;;;;3.75;2.08;;;21.70;61.30;;;;;;5026701;28;43464;-61
2022/06/11 11:45:47;;;;;;;3.92;1.95;;;21.70;61.30;;;;;;5035800;28;43474;-61
2022/06/11 11:48:26;;;;;;;3.75;1.90;;;21.70;61.30;;;;;;5038097;28;43594;-61
2022/06/11 11:51:09;;;;;;;4.13;1.77;;;21.80;61.30;;;;;;5034065;28;44682;-61
2022/06/11 11:54:13;;;;;;;4.32;2.10;;;21.80;61.30;;;;;;5032821;28;43871;-61
2022/06/11 11:56:44;;;;;;;4.20;2.03;;;21.80;61.20;;;;;;5036476;28;43487;-61
2022/06/11 11:59:19;;;;;;;;;;;21.80;61.30;;;;;;5043433;28;43391;-61
2022/06/11 12:01:49;;;;;;;3.53;1.60;;;21.80;61.10;;;;;;5032055;28;44724;-61
2022/06/11 12:04:21;;;;;;;3.70;1.90;;;21.90;61.30;;;;;;5031325;28;43515;-62
2022/06/11 12:07:05;;;;;;;4.07;2.05;;;21.90;61.10;;;;;;5040667;28;43411;-61
2022/06/11 12:09:49;;;;;;;3.45;2.20;;;21.90;61.00;;;;;;5042071;28;43549;-61
2022/06/11 12:12:29;;;;;;;4.57;2.00;;;22.00;60.80;;;;;;5028687;28;44725;-61
2022/06/11 12:14:59;;;;;;;4.77;2.03;;;22.00;60.60;;;;;;5032625;28;43845;-61
2022/06/11 12:17:27;;;;;;;3.92;1.90;;;22.00;60.80;;;;;;5039632;28;43510;-61
2022/06/11 12:20:07;;;;;;;6.80;2.45;;;22.00;60.80;;;;;;5027382;28;43421;-61
2022/06/11 12:22:41;;;;;;;3.47;2.20;;;22.00;60.60;;;;;;5032656;28;44227;-60
2022/06/11 12:25:34;;;;;;;4.20;2.10;;;22.00;60.70;;;;;;5039071;28;43961;-61
2022/06/11 12:28:02;;;;;;;3.83;1.83;;;22.10;60.80;;;;;;5024644;28;43645;-61
2022/06/11 12:30:30;;;;;;;3.47;1.70;;;22.10;60.80;;;;;;5030450;28;43454;-61
2022/06/11 12:33:01;;;;;;;3.50;1.75;;;22.10;60.70;;;;;;5037295;28;44440;-61
2022/06/11 12:35:53;;;;;;;3.85;1.80;;;22.10;60.80;;;;;;5040809;28;43399;-61
2022/06/11 12:38:39;;;;;;;4.60;1.90;;;22.20;60.70;;;;;;5032509;28;43529;-61
2022/06/11 12:41:20;;;;;;;4.05;2.17;;;22.20;60.60;;;;;;5031143;28;43499;-61
2022/06/11 12:44:06;;;;;;;;;;;22.20;60.60;;;;;;5040670;28;43781;-61
2022/06/11 12:47:22;;;;;;;4.50;2.10;;;22.20;60.60;;;;;;5030412;28;43750;-61
2022/06/11 12:50:17;;;;;;;5.43;2.00;;;22.30;60.60;;;;;;4981473;28;43669;-62
2022/06/11 12:52:54;;;;;;;4.03;1.92;;;22.30;59.30;;;;;;5041355;28;44088;-61
2022/06/11 12:55:40;;;;;;;3.88;1.90;;;22.40;59.30;;;;;;5027958;28;44672;-61
2022/06/11 12:58:39;;;;;;;5.22;2.50;;;22.50;57.50;;;;;;5034127;28;43981;-61
2022/06/11 13:01:28;;;;;;;4.30;2.35;;;22.60;57.20;;;;;;5045833;28;43465;-60
2022/06/11 13:04:14;;;;;;;7.07;2.30;;;22.60;56.70;;;;;;5045226;28;43511;-62
2022/06/11 13:06:45;;;;;;;5.63;2.28;;;22.70;56.30;;;;;;5032712;28;43800;-62
2022/06/11 13:09:18;;;;;;;;;;;22.70;56.30;;;;;;5035688;28;44013;-61
2022/06/11 13:12:04;;;;;;;3.53;2.00;;;22.80;56.40;;;;;;5043138;28;43427;-61
2022/06/11 13:15:08;;;;;;;5.68;2.20;;;22.80;56.30;;;;;;5045967;28;43437;-61
2022/06/11 13:18:17;;;;;;;8.30;3.05;;;22.90;56.70;;;;;;5038027;28;44254;-60
2022/06/11 13:21:08;;;;;;;6.00;2.25;;;22.90;56.30;;;;;;5039485;28;43470;-61
2022/06/11 13:23:45;;;;;;;4.53;2.00;;;22.90;55.90;;;;;;5041184;28;43521;-61
2022/06/11 13:26:44;;;;;;;5.30;2.47;;;23.00;55.50;;;;;;5033267;28;43476;-61
2022/06/11 13:29:26;;;;;;;5.60;2.00;;;23.00;54.70;;;;;;5040829;28;44084;-62
2022/06/11 13:32:00;;;;;;;4.75;2.05;;;23.00;55.00;;;;;;5044471;28;43716;-61
2022/06/11 13:34:46;;;;;;;6.05;2.35;;;23.10;54.80;;;;;;5031073;28;43435;-62